Time,TemperatureF,DewpointF,PressureIn,WindDirection,WindDirectionDegrees,WindSpeedMPH,WindSpeedGustMPH,Humidity,HourlyPrecipIn,Conditions,Clouds,dailyrainin,SoftwareType,DateUTC
2013-03-31 00:02:00,27.9,20.7,30.01,WSW,247,0.0,0.0,74,0.00,,,0.00,meteohub,2013-03-31 00:02:00,
2013-03-31 00:07:00,27.9,20.7,30.01,WSW,247,0.0,0.0,74,0.00,,,0.00,meteohub,2013-03-31 00:07:00,
2013-03-31 00:12:00,27.9,21.0,30.01,WSW,247,0.0,0.0,75,0.00,,,0.00,meteohub,2013-03-31 00:12:00,
2013-03-31 00:18:00,27.9,21.0,30.01,WSW,247,0.0,0.0,75,0.00,,,0.00,meteohub,2013-03-31 00:18:00,
2013-03-31 00:23:00,27.9,21.0,30.01,WSW,247,0.0,0.0,75,0.00,,,0.00,meteohub,2013-03-31 00:23:00,
2013-03-31 00:28:00,27.7,20.8,30.01,WSW,247,0.0,0.0,75,0.00,,,0.00,meteohub,2013-03-31 00:28:00,
2013-03-31 00:33:00,27.7,20.8,30.01,WSW,247,0.0,0.0,75,0.00,,,0.00,meteohub,2013-03-31 00:33:00,
2013-03-31 00:38:00,27.7,20.8,30.01,West,270,0.0,0.0,75,0.00,,,0.00,meteohub,2013-03-31 00:38:00,
2013-03-31 00:44:00,27.5,20.7,30.01,West,270,0.0,0.0,75,0.00,,,0.00,meteohub,2013-03-31 00:44:00,
2013-03-31 00:49:00,27.5,21.0,30.01,West,270,0.0,0.0,76,0.00,,,0.00,meteohub,2013-03-31 00:49:00,
2013-03-31 00:54:00,27.3,20.8,30.01,WNW,292,0.0,0.0,76,0.00,,,0.00,meteohub,2013-03-31 00:54:00,
2013-03-31 02:00:00,27.3,20.8,30.01,WNW,292,0.0,0.0,76,0.00,,,0.00,meteohub,2013-03-31 01:00:00,
2013-03-31 02:05:00,27.3,20.8,29.98,NW,315,0.0,0.0,76,0.00,,,0.00,meteohub,2013-03-31 01:05:00,
2013-03-31 02:10:00,27.3,21.0,29.98,NW,315,0.0,0.0,77,0.00,,,0.00,meteohub,2013-03-31 01:10:00,
2013-03-31 02:15:00,27.3,21.0,29.98,WSW,247,0.0,0.0,77,0.00,,,0.00,meteohub,2013-03-31 01:15:00,
2013-03-31 02:21:00,27.3,21.0,29.98,WSW,247,0.0,0.0,77,0.00,,,0.00,meteohub,2013-03-31 01:21:00,
2013-03-31 02:26:00,27.3,21.0,29.98,WSW,247,0.0,0.0,77,0.00,,,0.00,meteohub,2013-03-31 01:26:00,
2013-03-31 02:32:00,27.1,20.8,29.98,WSW,247,0.0,0.0,77,0.00,,,0.00,meteohub,2013-03-31 01:32:00,
2013-03-31 02:37:00,27.1,20.8,29.98,West,270,0.0,0.0,77,0.00,,,0.00,meteohub,2013-03-31 01:37:00,
2013-03-31 02:42:00,27.0,20.7,29.98,West,270,0.0,0.0,77,0.00,,,0.00,meteohub,2013-03-31 01:42:00,
2013-03-31 02:47:00,27.0,21.0,29.98,West,270,0.0,0.0,78,0.00,,,0.00,meteohub,2013-03-31 01:47:00,
2013-03-31 02:52:00,27.0,21.0,29.98,NE,45,0.0,0.0,78,0.00,,,0.00,meteohub,2013-03-31 01:52:00,
2013-03-31 02:57:00,27.0,21.0,29.98,NE,45,0.0,0.0,78,0.00,,,0.00,meteohub,2013-03-31 01:57:00,
2013-03-31 03:02:00,26.8,20.8,29.98,NE,45,0.0,0.0,78,0.00,,,0.00,meteohub,2013-03-31 02:02:00,
2013-03-31 03:08:00,26.6,20.7,29.98,NE,45,0.0,0.0,78,0.00,,,0.00,meteohub,2013-03-31 02:08:00,
2013-03-31 03:13:00,26.4,20.5,29.98,WSW,247,0.0,0.0,78,0.00,,,0.00,meteohub,2013-03-31 02:13:00,
2013-03-31 03:18:00,26.2,20.3,29.98,West,270,0.0,0.0,78,0.00,,,0.00,meteohub,2013-03-31 02:18:00,
2013-03-31 03:24:00,26.2,20.3,29.98,West,270,0.0,0.0,78,0.00,,,0.00,meteohub,2013-03-31 02:24:00,
2013-03-31 03:29:00,26.2,20.7,29.98,West,270,0.0,0.0,79,0.00,,,0.00,meteohub,2013-03-31 02:29:00,
2013-03-31 03:35:00,26.1,20.5,29.98,West,270,0.0,0.0,79,0.00,,,0.00,meteohub,2013-03-31 02:35:00,
2013-03-31 03:40:00,26.1,20.5,29.98,West,270,0.0,0.0,79,0.00,,,0.00,meteohub,2013-03-31 02:40:00,
2013-03-31 03:45:00,26.1,20.5,29.98,West,270,0.0,0.0,79,0.00,,,0.00,meteohub,2013-03-31 02:45:00,
2013-03-31 03:50:00,25.9,20.3,29.98,West,270,0.0,0.0,79,0.00,,,0.00,meteohub,2013-03-31 02:50:00,
2013-03-31 03:56:00,25.9,20.3,29.98,West,270,0.0,0.0,79,0.00,,,0.00,meteohub,2013-03-31 02:56:00,
2013-03-31 04:01:00,25.9,20.3,29.98,West,270,0.0,0.0,79,0.00,,,0.00,meteohub,2013-03-31 03:01:00,
2013-03-31 04:06:00,25.7,20.1,29.98,West,270,0.0,0.0,79,0.00,,,0.00,meteohub,2013-03-31 03:06:00,
2013-03-31 04:11:00,25.7,20.1,29.98,WSW,247,0.0,0.0,79,0.00,,,0.00,meteohub,2013-03-31 03:11:00,
2013-03-31 04:16:00,25.7,20.1,29.98,WSW,247,0.0,0.0,79,0.00,,,0.00,meteohub,2013-03-31 03:16:00,
2013-03-31 04:22:00,25.5,20.3,29.98,WSW,247,0.0,0.0,80,0.00,,,0.00,meteohub,2013-03-31 03:22:00,
2013-03-31 04:27:00,25.5,20.3,29.98,West,270,0.0,0.0,80,0.00,,,0.00,meteohub,2013-03-31 03:27:00,
2013-03-31 04:32:00,25.5,20.3,29.98,WNW,292,0.0,0.0,80,0.00,,,0.00,meteohub,2013-03-31 03:32:00,
2013-03-31 04:38:00,25.3,20.1,29.98,West,270,0.0,0.0,80,0.00,,,0.00,meteohub,2013-03-31 03:38:00,
2013-03-31 04:43:00,25.3,20.1,29.98,West,270,0.0,0.0,80,0.00,,,0.00,meteohub,2013-03-31 03:43:00,
2013-03-31 04:48:00,25.3,20.1,29.98,West,270,0.0,0.0,80,0.00,,,0.00,meteohub,2013-03-31 03:48:00,
2013-03-31 04:53:00,25.3,20.1,29.98,WSW,247,0.0,0.0,80,0.00,,,0.00,meteohub,2013-03-31 03:53:00,
2013-03-31 04:58:00,25.2,19.9,29.98,WSW,247,0.0,0.0,80,0.00,,,0.00,meteohub,2013-03-31 03:58:00,
2013-03-31 05:00:00,25.2,19.9,29.98,WSW,247,0.0,0.0,80,0.00,,,0.00,meteohub,2013-03-31 04:00:00,
2013-03-31 05:02:00,25.2,19.9,29.98,WSW,247,0.0,0.0,80,0.00,,,0.00,meteohub,2013-03-31 04:02:00,
2013-03-31 05:07:00,25.2,19.9,29.98,WSW,247,0.0,0.0,80,0.00,,,0.00,meteohub,2013-03-31 04:07:00,
2013-03-31 05:12:00,25.2,20.1,29.98,SSE,157,0.0,0.0,81,0.00,,,0.00,meteohub,2013-03-31 04:12:00,
2013-03-31 05:18:00,25.2,20.1,29.98,SSE,157,0.0,0.0,81,0.00,,,0.00,meteohub,2013-03-31 04:18:00,
2013-03-31 05:23:00,25.0,19.8,29.98,SSE,157,0.0,0.0,80,0.00,,,0.00,meteohub,2013-03-31 04:23:00,
2013-03-31 05:28:00,25.0,19.8,29.98,SSE,157,0.0,0.0,80,0.00,,,0.00,meteohub,2013-03-31 04:28:00,
2013-03-31 05:33:00,24.8,19.8,29.98,SSE,157,0.0,0.0,81,0.00,,,0.00,meteohub,2013-03-31 04:33:00,
2013-03-31 05:39:00,24.8,19.8,29.98,WNW,292,0.0,0.0,81,0.00,,,0.00,meteohub,2013-03-31 04:39:00,
2013-03-31 05:44:00,24.6,19.6,29.98,WNW,292,0.0,0.0,81,0.00,,,0.00,meteohub,2013-03-31 04:44:00,
2013-03-31 05:49:00,24.6,19.6,29.98,NW,315,0.0,0.0,81,0.00,,,0.00,meteohub,2013-03-31 04:49:00,
2013-03-31 05:54:00,24.6,19.6,29.98,NW,315,0.0,0.0,81,0.00,,,0.00,meteohub,2013-03-31 04:54:00,
2013-03-31 05:59:00,24.6,19.6,29.98,NW,315,0.0,0.0,81,0.00,,,0.00,meteohub,2013-03-31 04:59:00,
2013-03-31 06:05:00,24.6,19.6,29.98,NW,315,0.0,0.0,81,0.00,,,0.00,meteohub,2013-03-31 05:05:00,
2013-03-31 06:10:00,24.4,19.4,29.98,NW,315,0.0,0.0,81,0.00,,,0.00,meteohub,2013-03-31 05:10:00,
2013-03-31 06:15:00,24.6,19.9,29.98,SSW,202,0.0,0.0,82,0.00,,,0.00,meteohub,2013-03-31 05:15:00,
2013-03-31 06:20:00,24.6,19.9,29.98,South,180,0.0,0.0,82,0.00,,,0.00,meteohub,2013-03-31 05:20:00,
2013-03-31 06:26:00,24.6,19.9,29.98,ESE,112,0.0,0.0,82,0.00,,,0.00,meteohub,2013-03-31 05:26:00,
2013-03-31 06:31:00,24.4,19.8,29.98,East,90,0.0,0.0,82,0.00,,,0.00,meteohub,2013-03-31 05:31:00,
2013-03-31 06:36:00,24.4,19.8,29.98,East,90,0.0,0.0,82,0.00,,,0.00,meteohub,2013-03-31 05:36:00,
2013-03-31 06:41:00,24.4,19.8,29.98,East,90,0.0,0.0,82,0.00,,,0.00,meteohub,2013-03-31 05:41:00,
2013-03-31 06:46:00,24.4,19.8,29.98,East,90,0.0,0.0,82,0.00,,,0.00,meteohub,2013-03-31 05:46:00,
2013-03-31 06:52:00,24.4,19.8,29.98,East,90,0.0,0.0,82,0.00,,,0.00,meteohub,2013-03-31 05:52:00,
2013-03-31 06:57:00,24.4,19.8,29.98,East,90,0.0,0.0,82,0.00,,,0.00,meteohub,2013-03-31 05:57:00,
2013-03-31 07:02:00,24.4,19.8,29.98,East,90,0.0,0.0,82,0.00,,,0.00,meteohub,2013-03-31 06:02:00,
2013-03-31 07:07:00,24.6,20.1,29.98,East,90,0.0,0.0,83,0.00,,,0.00,meteohub,2013-03-31 06:07:00,
2013-03-31 07:12:00,24.8,20.3,29.98,East,90,2.0,2.0,83,0.00,,,0.00,meteohub,2013-03-31 06:12:00,
2013-03-31 07:17:00,25.0,20.5,29.98,East,90,0.0,2.0,83,0.00,,,0.00,meteohub,2013-03-31 06:17:00,
2013-03-31 07:23:00,25.2,20.7,29.98,East,90,2.0,2.0,83,0.00,,,0.00,meteohub,2013-03-31 06:23:00,
2013-03-31 07:28:00,25.3,21.2,29.98,East,90,0.0,3.0,84,0.00,,,0.00,meteohub,2013-03-31 06:28:00,
2013-03-31 07:33:00,25.5,21.4,29.98,ENE,67,0.0,3.0,84,0.00,,,0.00,meteohub,2013-03-31 06:33:00,
2013-03-31 07:38:00,25.7,21.6,29.98,ENE,67,2.0,3.0,84,0.00,,,0.00,meteohub,2013-03-31 06:38:00,
2013-03-31 07:43:00,26.1,22.1,29.98,East,90,3.0,3.0,85,0.00,,,0.00,meteohub,2013-03-31 06:43:00,
2013-03-31 07:48:00,26.4,22.5,29.98,East,90,0.0,3.0,85,0.00,,,0.00,meteohub,2013-03-31 06:48:00,
2013-03-31 07:54:00,26.8,22.8,29.98,East,90,3.0,3.0,85,0.00,,,0.00,meteohub,2013-03-31 06:54:00,
2013-03-31 07:59:00,27.0,23.0,29.98,ENE,67,3.0,3.0,85,0.00,,,0.00,meteohub,2013-03-31 06:59:00,
2013-03-31 08:04:00,27.5,23.9,29.98,East,90,2.0,3.0,86,0.00,,,0.00,meteohub,2013-03-31 07:04:00,
2013-03-31 08:09:00,27.9,24.3,29.98,East,90,3.0,3.0,86,0.00,,,0.00,meteohub,2013-03-31 07:09:00,
2013-03-31 08:14:00,28.2,24.8,29.98,East,90,3.0,4.0,87,0.00,,,0.00,meteohub,2013-03-31 07:14:00,
2013-03-31 08:20:00,28.4,25.3,29.98,ENE,67,3.0,4.0,88,0.00,,,0.00,meteohub,2013-03-31 07:20:00,
2013-03-31 08:25:00,28.8,25.3,29.98,East,90,1.0,4.0,87,0.00,,,0.00,meteohub,2013-03-31 07:25:00,
2013-03-31 08:30:00,28.9,25.5,29.98,ESE,112,3.0,4.0,87,0.00,,,0.00,meteohub,2013-03-31 07:30:00,
2013-03-31 08:36:00,29.3,25.9,29.98,East,90,3.0,4.0,87,0.00,,,0.00,meteohub,2013-03-31 07:36:00,
2013-03-31 08:41:00,29.5,26.1,29.98,East,90,4.0,4.0,87,0.00,,,0.00,meteohub,2013-03-31 07:41:00,
2013-03-31 08:46:00,29.8,26.8,29.98,SE,135,4.0,6.0,88,0.00,,,0.00,meteohub,2013-03-31 07:46:00,
2013-03-31 08:51:00,30.2,27.1,29.98,ESE,112,5.0,6.0,88,0.00,,,0.00,meteohub,2013-03-31 07:51:00,
2013-03-31 08:56:00,30.6,27.1,29.98,ESE,112,4.0,6.0,87,0.00,,,0.00,meteohub,2013-03-31 07:56:00,
2013-03-31 09:02:00,30.7,27.3,29.98,ESE,112,3.0,6.0,87,0.00,,,0.00,meteohub,2013-03-31 08:02:00,
2013-03-31 09:07:00,31.1,27.3,29.98,ESE,112,4.0,6.0,86,0.00,,,0.00,meteohub,2013-03-31 08:07:00,
2013-03-31 09:12:00,31.5,27.5,29.98,ESE,112,6.0,6.0,85,0.00,,,0.00,meteohub,2013-03-31 08:12:00,
2013-03-31 09:17:00,31.8,27.5,29.98,ESE,112,4.0,6.0,84,0.00,,,0.00,meteohub,2013-03-31 08:17:00,
2013-03-31 09:23:00,32.2,27.7,29.98,SE,135,4.0,8.0,83,0.00,,,0.00,meteohub,2013-03-31 08:23:00,
2013-03-31 09:28:00,32.4,27.5,29.98,ESE,112,4.0,8.0,82,0.00,,,0.00,meteohub,2013-03-31 08:28:00,
2013-03-31 09:33:00,32.5,27.1,29.98,SE,135,3.0,8.0,80,0.00,,,0.00,meteohub,2013-03-31 08:33:00,
2013-03-31 09:38:00,32.9,27.5,29.98,SE,135,3.0,6.0,80,0.00,,,0.00,meteohub,2013-03-31 08:38:00,
2013-03-31 09:43:00,33.3,27.5,29.98,SE,135,3.0,6.0,79,0.00,,,0.00,meteohub,2013-03-31 08:43:00,
2013-03-31 09:49:00,33.6,27.5,29.98,SSE,157,3.0,6.0,78,0.00,,,0.00,meteohub,2013-03-31 08:49:00,
2013-03-31 09:54:00,34.0,27.1,29.98,SSW,202,2.0,6.0,76,0.00,,,0.00,meteohub,2013-03-31 08:54:00,
2013-03-31 09:59:00,34.3,26.6,29.98,SE,135,6.0,6.0,73,0.00,,,0.00,meteohub,2013-03-31 08:59:00,
2013-03-31 10:05:00,34.5,25.3,30.01,SE,135,4.0,6.0,69,0.00,,,0.00,meteohub,2013-03-31 09:05:00,
2013-03-31 10:10:00,34.9,26.1,30.01,SE,135,3.0,6.0,70,0.00,,,0.00,meteohub,2013-03-31 09:10:00,
2013-03-31 10:16:00,35.1,25.5,30.01,SSE,157,6.0,6.0,68,0.00,,,0.00,meteohub,2013-03-31 09:16:00,
2013-03-31 10:21:00,35.2,25.0,30.01,SE,135,5.0,6.0,66,0.00,,,0.00,meteohub,2013-03-31 09:21:00,
2013-03-31 10:26:00,35.6,25.0,30.01,ESE,112,4.0,8.0,65,0.00,,,0.00,meteohub,2013-03-31 09:26:00,
2013-03-31 10:31:00,35.8,24.8,30.01,ESE,112,6.0,8.0,64,0.00,,,0.00,meteohub,2013-03-31 09:31:00,
2013-03-31 10:36:00,36.0,24.6,30.01,SE,135,5.0,8.0,63,0.00,,,0.00,meteohub,2013-03-31 09:36:00,
2013-03-31 10:41:00,36.1,24.1,30.01,SE,135,7.0,9.0,61,0.00,,,0.00,meteohub,2013-03-31 09:41:00,
2013-03-31 10:46:00,36.7,24.1,30.01,SSE,157,6.0,9.0,60,0.00,,,0.00,meteohub,2013-03-31 09:46:00,
2013-03-31 10:52:00,36.7,23.7,30.01,ESE,112,3.0,9.0,59,0.00,,,0.00,meteohub,2013-03-31 09:52:00,
2013-03-31 10:57:00,37.0,23.7,30.01,SE,135,4.0,9.0,58,0.00,,,0.00,meteohub,2013-03-31 09:57:00,
2013-03-31 11:02:00,37.0,22.8,30.01,SE,135,4.0,9.0,56,0.00,,,0.00,meteohub,2013-03-31 10:02:00,
2013-03-31 11:07:00,37.4,22.6,30.01,East,90,4.0,9.0,55,0.00,,,0.00,meteohub,2013-03-31 10:07:00,
2013-03-31 11:12:00,37.8,23.0,30.01,SE,135,7.0,9.0,55,0.00,,,0.00,meteohub,2013-03-31 10:12:00,
2013-03-31 11:17:00,37.8,22.6,30.01,SSE,157,6.0,9.0,54,0.00,,,0.00,meteohub,2013-03-31 10:17:00,
2013-03-31 11:22:00,37.9,22.8,30.01,SSE,157,6.0,10.0,54,0.00,,,0.00,meteohub,2013-03-31 10:22:00,
2013-03-31 11:27:00,37.9,22.8,30.01,SE,135,4.0,10.0,54,0.00,,,0.00,meteohub,2013-03-31 10:27:00,
2013-03-31 11:32:00,37.8,22.1,30.01,SSE,157,8.0,10.0,53,0.00,,,0.00,meteohub,2013-03-31 10:32:00,
2013-03-31 11:37:00,37.4,21.4,30.01,ESE,112,6.0,10.0,52,0.00,,,0.00,meteohub,2013-03-31 10:37:00,
2013-03-31 11:43:00,37.8,21.7,30.01,East,90,4.0,10.0,52,0.00,,,0.00,meteohub,2013-03-31 10:43:00,
2013-03-31 11:48:00,38.1,21.6,30.01,SSE,157,3.0,9.0,51,0.00,,,0.00,meteohub,2013-03-31 10:48:00,
2013-03-31 11:53:00,38.3,21.7,30.01,ESE,112,3.0,10.0,51,0.00,,,0.00,meteohub,2013-03-31 10:53:00,
2013-03-31 11:58:00,38.8,22.3,30.01,SSE,157,6.0,11.0,51,0.00,,,0.00,meteohub,2013-03-31 10:58:00,
2013-03-31 12:04:00,39.4,22.8,29.98,ESE,112,8.0,12.0,51,0.00,,,0.00,meteohub,2013-03-31 11:04:00,
2013-03-31 12:09:00,39.6,22.5,29.98,SE,135,10.0,13.0,50,0.00,,,0.00,meteohub,2013-03-31 11:09:00,
2013-03-31 12:14:00,39.6,22.5,29.98,SE,135,11.0,13.0,50,0.00,,,0.00,meteohub,2013-03-31 11:14:00,
2013-03-31 12:19:00,39.9,22.3,29.98,ESE,112,8.0,13.0,49,0.00,,,0.00,meteohub,2013-03-31 11:19:00,
2013-03-31 12:25:00,39.7,22.1,29.98,East,90,6.0,12.0,49,0.00,,,0.00,meteohub,2013-03-31 11:25:00,
2013-03-31 12:30:00,39.9,21.7,29.98,SSE,157,9.0,12.0,48,0.00,,,0.00,meteohub,2013-03-31 11:30:00,
2013-03-31 12:35:00,39.7,21.7,29.98,ENE,67,5.0,11.0,48,0.00,,,0.00,meteohub,2013-03-31 11:35:00,
2013-03-31 12:40:00,39.7,21.7,29.98,East,90,9.0,10.0,48,0.00,,,0.00,meteohub,2013-03-31 11:40:00,
2013-03-31 12:45:00,39.7,22.1,29.98,ESE,112,6.0,13.0,49,0.00,,,0.00,meteohub,2013-03-31 11:45:00,
2013-03-31 12:50:00,39.6,21.6,29.98,SE,135,7.0,13.0,48,0.00,,,0.00,meteohub,2013-03-31 11:50:00,
2013-03-31 12:55:00,39.7,22.1,29.98,SE,135,4.0,13.0,49,0.00,,,0.00,meteohub,2013-03-31 11:55:00,
2013-03-31 13:00:00,40.1,22.5,29.98,ESE,112,6.0,10.0,49,0.00,,,0.00,meteohub,2013-03-31 12:00:00,
2013-03-31 13:06:00,40.5,22.8,29.98,ESE,112,4.0,10.0,49,0.00,,,0.00,meteohub,2013-03-31 12:06:00,
2013-03-31 13:11:00,40.3,22.1,29.98,SE,135,7.0,11.0,48,0.00,,,0.00,meteohub,2013-03-31 12:11:00,
2013-03-31 13:16:00,40.3,22.1,29.98,SSE,157,6.0,12.0,48,0.00,,,0.00,meteohub,2013-03-31 12:16:00,
2013-03-31 13:21:00,40.5,22.8,29.98,SE,135,11.0,12.0,49,0.00,,,0.00,meteohub,2013-03-31 12:21:00,
2013-03-31 13:26:00,40.5,22.3,29.98,ESE,112,6.0,12.0,48,0.00,,,0.00,meteohub,2013-03-31 12:26:00,
2013-03-31 13:32:00,40.5,22.3,29.98,ESE,112,10.0,12.0,48,0.00,,,0.00,meteohub,2013-03-31 12:32:00,
2013-03-31 13:37:00,40.6,22.5,29.98,NNE,22,3.0,12.0,48,0.00,,,0.00,meteohub,2013-03-31 12:37:00,
2013-03-31 13:42:00,40.6,22.5,29.98,ENE,67,1.0,12.0,48,0.00,,,0.00,meteohub,2013-03-31 12:42:00,
2013-03-31 13:47:00,40.5,22.3,29.98,ESE,112,3.0,11.0,48,0.00,,,0.00,meteohub,2013-03-31 12:47:00,
2013-03-31 13:53:00,40.5,22.3,29.98,NNE,22,3.0,11.0,48,0.00,,,0.00,meteohub,2013-03-31 12:53:00,
2013-03-31 13:58:00,40.1,21.6,29.98,SE,135,2.0,11.0,47,0.00,,,0.00,meteohub,2013-03-31 12:58:00,
2013-03-31 14:03:00,40.3,22.1,29.98,SSE,157,3.0,11.0,48,0.00,,,0.00,meteohub,2013-03-31 13:03:00,
2013-03-31 14:08:00,40.1,21.9,29.98,SSE,157,7.0,11.0,48,0.00,,,0.00,meteohub,2013-03-31 13:08:00,
2013-03-31 14:13:00,40.3,22.1,29.98,ENE,67,8.0,13.0,48,0.00,,,0.00,meteohub,2013-03-31 13:13:00,
2013-03-31 14:19:00,40.3,22.1,29.98,SE,135,9.0,13.0,48,0.00,,,0.00,meteohub,2013-03-31 13:19:00,
2013-03-31 14:24:00,40.3,22.1,29.98,SE,135,7.0,13.0,48,0.00,,,0.00,meteohub,2013-03-31 13:24:00,
2013-03-31 14:29:00,40.1,21.9,29.98,SE,135,10.0,13.0,48,0.00,,,0.00,meteohub,2013-03-31 13:29:00,
2013-03-31 14:34:00,40.3,22.1,29.98,East,90,9.0,15.0,48,0.00,,,0.00,meteohub,2013-03-31 13:34:00,
2013-03-31 14:39:00,40.5,22.8,29.98,SSE,157,3.0,15.0,49,0.00,,,0.00,meteohub,2013-03-31 13:39:00,
2013-03-31 14:44:00,40.5,22.3,29.98,ESE,112,13.0,15.0,48,0.00,,,0.00,meteohub,2013-03-31 13:44:00,
2013-03-31 14:49:00,40.3,21.7,29.98,SE,135,7.0,13.0,47,0.00,,,0.00,meteohub,2013-03-31 13:49:00,
2013-03-31 14:55:00,39.9,21.4,29.98,SE,135,6.0,15.0,47,0.00,,,0.00,meteohub,2013-03-31 13:55:00,
2013-03-31 15:00:00,40.1,21.6,29.98,SE,135,6.0,15.0,47,0.00,,,0.00,meteohub,2013-03-31 14:00:00,
2013-03-31 15:05:00,39.9,21.4,29.98,SE,135,13.0,15.0,47,0.00,,,0.00,meteohub,2013-03-31 14:05:00,
2013-03-31 15:10:00,39.6,20.5,29.98,SE,135,10.0,16.0,46,0.00,,,0.00,meteohub,2013-03-31 14:10:00,
2013-03-31 15:15:00,39.7,21.2,29.98,SE,135,8.0,16.0,47,0.00,,,0.00,meteohub,2013-03-31 14:15:00,
2013-03-31 15:21:00,39.6,20.5,29.98,SE,135,6.0,16.0,46,0.00,,,0.00,meteohub,2013-03-31 14:21:00,
2013-03-31 15:26:00,39.4,20.8,29.98,SE,135,9.0,15.0,47,0.00,,,0.00,meteohub,2013-03-31 14:26:00,
2013-03-31 15:31:00,39.6,21.0,29.98,ESE,112,7.0,15.0,47,0.00,,,0.00,meteohub,2013-03-31 14:31:00,
2013-03-31 15:37:00,39.6,21.0,29.98,ESE,112,11.0,15.0,47,0.00,,,0.00,meteohub,2013-03-31 14:37:00,
2013-03-31 15:42:00,39.7,21.2,29.98,ESE,112,6.0,15.0,47,0.00,,,0.00,meteohub,2013-03-31 14:42:00,
2013-03-31 15:47:00,39.6,21.0,29.98,ESE,112,10.0,15.0,47,0.00,,,0.00,meteohub,2013-03-31 14:47:00,
2013-03-31 15:52:00,39.6,21.0,29.98,SSE,157,8.0,13.0,47,0.00,,,0.00,meteohub,2013-03-31 14:52:00,
2013-03-31 15:57:00,39.6,20.5,29.98,ESE,112,3.0,13.0,46,0.00,,,0.00,meteohub,2013-03-31 14:57:00,
2013-03-31 16:02:00,39.4,20.3,29.98,ESE,112,10.0,13.0,46,0.00,,,0.00,meteohub,2013-03-31 15:02:00,
2013-03-31 16:07:00,39.6,21.0,29.98,SE,135,9.0,13.0,47,0.00,,,0.00,meteohub,2013-03-31 15:07:00,
2013-03-31 16:13:00,39.4,20.3,29.98,ESE,112,10.0,13.0,46,0.00,,,0.00,meteohub,2013-03-31 15:13:00,
2013-03-31 16:18:00,39.2,20.1,29.98,SSE,157,9.0,13.0,46,0.00,,,0.00,meteohub,2013-03-31 15:18:00,
2013-03-31 16:24:00,39.4,20.3,29.98,NE,45,7.0,13.0,46,0.00,,,0.00,meteohub,2013-03-31 15:24:00,
2013-03-31 16:29:00,39.2,20.1,29.98,SE,135,3.0,13.0,46,0.00,,,0.00,meteohub,2013-03-31 15:29:00,
2013-03-31 16:34:00,39.2,20.1,29.98,ESE,112,10.0,12.0,46,0.00,,,0.00,meteohub,2013-03-31 15:34:00,
2013-03-31 16:39:00,39.2,19.6,29.98,SSE,157,6.0,12.0,45,0.00,,,0.00,meteohub,2013-03-31 15:39:00,
2013-03-31 16:44:00,39.4,20.3,29.98,East,90,6.0,12.0,46,0.00,,,0.00,meteohub,2013-03-31 15:44:00,
2013-03-31 16:49:00,39.4,20.3,29.98,SSE,157,4.0,13.0,46,0.00,,,0.00,meteohub,2013-03-31 15:49:00,
2013-03-31 16:54:00,39.4,20.3,29.98,SE,135,5.0,13.0,46,0.00,,,0.00,meteohub,2013-03-31 15:54:00,
2013-03-31 17:00:00,39.4,20.8,29.98,South,180,6.0,13.0,47,0.00,,,0.00,meteohub,2013-03-31 16:00:00,
2013-03-31 17:05:00,39.2,20.1,29.98,SE,135,6.0,13.0,46,0.00,,,0.00,meteohub,2013-03-31 16:05:00,
2013-03-31 17:10:00,39.2,20.1,29.98,SE,135,12.0,13.0,46,0.00,,,0.00,meteohub,2013-03-31 16:10:00,
2013-03-31 17:15:00,39.2,20.1,29.98,SSE,157,6.0,13.0,46,0.00,,,0.00,meteohub,2013-03-31 16:15:00,
2013-03-31 17:21:00,39.2,20.7,29.98,East,90,5.0,13.0,47,0.00,,,0.00,meteohub,2013-03-31 16:21:00,
2013-03-31 17:26:00,39.2,20.7,29.98,SE,135,9.0,12.0,47,0.00,,,0.00,meteohub,2013-03-31 16:26:00,
2013-03-31 17:31:00,39.2,21.2,29.98,East,90,7.0,13.0,48,0.00,,,0.00,meteohub,2013-03-31 16:31:00,
2013-03-31 17:36:00,38.8,21.7,29.98,East,90,10.0,13.0,50,0.00,,,0.00,meteohub,2013-03-31 16:36:00,
2013-03-31 17:42:00,38.7,21.6,29.98,ESE,112,6.0,13.0,50,0.00,,,0.00,meteohub,2013-03-31 16:42:00,
2013-03-31 17:47:00,38.5,21.4,29.98,ENE,67,6.0,13.0,50,0.00,,,0.00,meteohub,2013-03-31 16:47:00,
2013-03-31 17:52:00,38.3,21.7,29.98,East,90,10.0,13.0,51,0.00,,,0.00,meteohub,2013-03-31 16:52:00,
2013-03-31 17:57:00,38.3,21.7,29.98,ESE,112,8.0,13.0,51,0.00,,,0.00,meteohub,2013-03-31 16:57:00,
2013-03-31 18:02:00,38.1,22.1,29.98,ESE,112,11.0,14.0,52,0.00,,,0.00,meteohub,2013-03-31 17:02:00,
2013-03-31 18:07:00,38.1,22.1,29.98,East,90,6.0,14.0,52,0.00,,,0.00,meteohub,2013-03-31 17:07:00,
2013-03-31 18:12:00,37.9,21.9,29.98,East,90,8.0,14.0,52,0.00,,,0.00,meteohub,2013-03-31 17:12:00,
2013-03-31 18:17:00,37.9,21.9,29.98,East,90,6.0,11.0,52,0.00,,,0.00,meteohub,2013-03-31 17:17:00,
2013-03-31 18:22:00,37.9,21.9,29.98,East,90,9.0,11.0,52,0.00,,,0.00,meteohub,2013-03-31 17:22:00,
2013-03-31 18:27:00,37.8,21.7,29.98,SE,135,9.0,11.0,52,0.00,,,0.00,meteohub,2013-03-31 17:27:00,
2013-03-31 18:32:00,37.8,22.1,29.98,SE,135,7.0,11.0,53,0.00,,,0.00,meteohub,2013-03-31 17:32:00,
2013-03-31 18:37:00,37.6,21.9,29.98,SE,135,8.0,12.0,53,0.00,,,0.00,meteohub,2013-03-31 17:37:00,
2013-03-31 18:42:00,37.6,21.9,29.98,East,90,3.0,12.0,53,0.00,,,0.00,meteohub,2013-03-31 17:42:00,
2013-03-31 18:47:00,37.4,21.9,29.98,East,90,7.0,12.0,53,0.00,,,0.00,meteohub,2013-03-31 17:47:00,
2013-03-31 18:53:00,37.4,22.3,29.98,East,90,5.0,13.0,54,0.00,,,0.00,meteohub,2013-03-31 17:53:00,
2013-03-31 18:58:00,37.2,22.5,29.98,ESE,112,6.0,13.0,55,0.00,,,0.00,meteohub,2013-03-31 17:58:00,
2013-03-31 19:03:00,37.2,22.5,29.98,ESE,112,6.0,13.0,55,0.00,,,0.00,meteohub,2013-03-31 18:03:00,
2013-03-31 19:08:00,37.0,22.8,29.98,SE,135,3.0,8.0,56,0.00,,,0.00,meteohub,2013-03-31 18:08:00,
2013-03-31 19:13:00,37.0,22.5,29.98,ESE,112,6.0,8.0,55,0.00,,,0.00,meteohub,2013-03-31 18:13:00,
2013-03-31 19:19:00,36.9,22.6,29.98,SE,135,10.0,10.0,56,0.00,,,0.00,meteohub,2013-03-31 18:19:00,
2013-03-31 19:24:00,36.7,22.5,29.98,SE,135,7.0,10.0,56,0.00,,,0.00,meteohub,2013-03-31 18:24:00,
2013-03-31 19:29:00,36.5,22.3,29.98,ESE,112,3.0,10.0,56,0.00,,,0.00,meteohub,2013-03-31 18:29:00,
2013-03-31 19:35:00,36.3,22.5,29.98,East,90,4.0,11.0,57,0.00,,,0.00,meteohub,2013-03-31 18:35:00,
2013-03-31 19:40:00,36.1,22.5,29.98,SE,135,6.0,11.0,57,0.00,,,0.00,meteohub,2013-03-31 18:40:00,
2013-03-31 19:45:00,36.0,22.3,29.98,East,90,4.0,9.0,57,0.00,,,0.00,meteohub,2013-03-31 18:45:00,
2013-03-31 19:50:00,35.8,22.1,29.98,SE,135,4.0,7.0,57,0.00,,,0.00,meteohub,2013-03-31 18:50:00,
2013-03-31 19:55:00,35.8,22.5,29.98,East,90,6.0,10.0,58,0.00,,,0.00,meteohub,2013-03-31 18:55:00,
2013-03-31 20:01:00,35.8,22.8,29.98,SE,135,4.0,10.0,59,0.00,,,0.00,meteohub,2013-03-31 19:01:00,
2013-03-31 20:06:00,35.6,23.5,29.98,ESE,112,6.0,10.0,61,0.00,,,0.00,meteohub,2013-03-31 19:06:00,
2013-03-31 20:11:00,35.6,23.5,29.98,ESE,112,6.0,8.0,61,0.00,,,0.00,meteohub,2013-03-31 19:11:00,
2013-03-31 20:16:00,35.6,23.9,29.98,SE,135,8.0,8.0,62,0.00,,,0.00,meteohub,2013-03-31 19:16:00,
2013-03-31 20:22:00,35.4,24.1,29.98,ESE,112,6.0,9.0,63,0.00,,,0.00,meteohub,2013-03-31 19:22:00,
2013-03-31 20:27:00,35.4,24.4,29.98,ESE,112,4.0,9.0,64,0.00,,,0.00,meteohub,2013-03-31 19:27:00,
2013-03-31 20:32:00,35.4,24.8,29.98,SE,135,7.0,9.0,65,0.00,,,0.00,meteohub,2013-03-31 19:32:00,
2013-03-31 20:37:00,35.4,25.2,29.98,SE,135,3.0,9.0,66,0.00,,,0.00,meteohub,2013-03-31 19:37:00,
2013-03-31 20:42:00,35.4,25.5,29.98,SE,135,7.0,9.0,67,0.00,,,0.00,meteohub,2013-03-31 19:42:00,
2013-03-31 20:47:00,33.6,23.2,29.98,SE,135,6.0,9.0,65,0.00,,,0.00,meteohub,2013-03-31 19:47:00,
2013-03-31 20:53:00,33.6,23.2,29.98,SE,135,6.0,9.0,65,0.00,,,0.00,meteohub,2013-03-31 19:53:00,
2013-03-31 20:58:00,35.2,25.7,29.98,SE,135,4.0,9.0,68,0.00,,,0.00,meteohub,2013-03-31 19:58:00,
2013-03-31 21:03:00,35.2,25.3,29.98,SE,135,4.0,9.0,67,0.00,,,0.00,meteohub,2013-03-31 20:03:00,
2013-03-31 21:08:00,35.2,25.0,29.98,SSE,157,5.0,11.0,66,0.00,,,0.00,meteohub,2013-03-31 20:08:00,
2013-03-31 21:14:00,35.2,25.7,29.98,East,90,4.0,11.0,68,0.00,,,0.00,meteohub,2013-03-31 20:14:00,
2013-03-31 21:19:00,35.1,24.4,29.98,SE,135,4.0,11.0,65,0.00,,,0.00,meteohub,2013-03-31 20:19:00,
2013-03-31 21:24:00,35.1,24.1,29.98,SSE,157,6.0,8.0,64,0.00,,,0.00,meteohub,2013-03-31 20:24:00,
2013-03-31 21:29:00,34.9,23.9,29.98,ESE,112,3.0,8.0,64,0.00,,,0.00,meteohub,2013-03-31 20:29:00,
2013-03-31 21:34:00,34.9,23.5,29.98,ESE,112,6.0,8.0,63,0.00,,,0.00,meteohub,2013-03-31 20:34:00,
2013-03-31 21:39:00,34.5,23.2,29.98,SE,135,5.0,8.0,63,0.00,,,0.00,meteohub,2013-03-31 20:39:00,
2013-03-31 21:45:00,34.3,22.6,29.98,ESE,112,5.0,11.0,62,0.00,,,0.00,meteohub,2013-03-31 20:45:00,
2013-03-31 21:50:00,34.3,22.6,29.98,SSE,157,6.0,11.0,62,0.00,,,0.00,meteohub,2013-03-31 20:50:00,
2013-03-31 21:55:00,34.2,22.5,29.98,East,90,4.0,9.0,62,0.00,,,0.00,meteohub,2013-03-31 20:55:00,
2013-03-31 22:00:00,33.8,22.1,29.98,SE,135,6.0,9.0,62,0.00,,,0.00,meteohub,2013-03-31 21:00:00,
2013-03-31 22:05:00,33.8,22.1,29.98,South,180,7.0,9.0,62,0.00,,,0.00,meteohub,2013-03-31 21:05:00,
2013-03-31 22:11:00,34.0,22.3,29.98,SE,135,3.0,10.0,62,0.00,,,0.00,meteohub,2013-03-31 21:11:00,
2013-03-31 22:16:00,33.6,22.5,29.98,ESE,112,6.0,10.0,63,0.00,,,0.00,meteohub,2013-03-31 21:16:00,
2013-03-31 22:21:00,33.4,22.3,29.98,SE,135,5.0,10.0,63,0.00,,,0.00,meteohub,2013-03-31 21:21:00,
2013-03-31 22:26:00,33.3,22.1,29.98,ESE,112,4.0,8.0,63,0.00,,,0.00,meteohub,2013-03-31 21:26:00,
2013-03-31 22:31:00,33.1,22.3,29.98,SSE,157,3.0,8.0,64,0.00,,,0.00,meteohub,2013-03-31 21:31:00,
2013-03-31 22:37:00,33.1,22.3,29.98,SE,135,4.0,8.0,64,0.00,,,0.00,meteohub,2013-03-31 21:37:00,
2013-03-31 22:42:00,32.7,22.3,29.98,East,90,2.0,8.0,65,0.00,,,0.00,meteohub,2013-03-31 21:42:00,
2013-03-31 22:47:00,32.7,22.3,29.98,ESE,112,6.0,7.0,65,0.00,,,0.00,meteohub,2013-03-31 21:47:00,
2013-03-31 22:52:00,32.7,22.3,29.98,SE,135,6.0,6.0,65,0.00,,,0.00,meteohub,2013-03-31 21:52:00,
2013-03-31 22:57:00,32.5,22.1,29.98,SE,135,5.0,6.0,65,0.00,,,0.00,meteohub,2013-03-31 21:57:00,
2013-03-31 23:05:00,32.5,22.1,29.98,SE,135,4.0,6.0,65,0.00,,,0.00,meteohub,2013-03-31 22:05:00,
2013-03-31 23:11:00,32.4,22.3,29.98,SSE,157,4.0,6.0,66,0.00,,,0.00,meteohub,2013-03-31 22:11:00,
2013-03-31 23:16:00,32.2,21.7,29.98,ESE,112,3.0,6.0,65,0.00,,,0.00,meteohub,2013-03-31 22:16:00,
2013-03-31 23:21:00,32.2,21.7,29.98,SE,135,3.0,6.0,65,0.00,,,0.00,meteohub,2013-03-31 22:21:00,
2013-03-31 23:27:00,32.0,21.6,29.98,ESE,112,3.0,6.0,65,0.00,,,0.00,meteohub,2013-03-31 22:27:00,
2013-03-31 23:32:00,31.8,21.4,29.98,ESE,112,4.0,6.0,65,0.00,,,0.00,meteohub,2013-03-31 22:32:00,
2013-03-31 23:37:00,31.6,21.6,29.98,ESE,112,4.0,6.0,66,0.00,,,0.00,meteohub,2013-03-31 22:37:00,
2013-03-31 23:42:00,31.6,21.6,29.98,SE,135,3.0,6.0,66,0.00,,,0.00,meteohub,2013-03-31 22:42:00,
2013-03-31 23:47:00,31.6,21.6,30.01,SE,135,4.0,6.0,66,0.00,,,0.00,meteohub,2013-03-31 22:47:00,
2013-03-31 23:53:00,31.6,21.6,30.01,SE,135,4.0,6.0,66,0.00,,,0.00,meteohub,2013-03-31 22:53:00,
2013-03-31 23:58:00,31.5,21.7,30.01,SE,135,5.0,6.0,67,0.00,,,0.00,meteohub,2013-03-31 22:58:00,